createdAt,value
2023-02-28T00:01:42.309Z,33.50
2023-02-28T00:11:45.434Z,30.60
2023-02-28T00:21:48.532Z,33.40
2023-02-28T00:31:51.758Z,36.50
2023-02-28T00:41:54.837Z,36.80
2023-02-28T00:51:58.305Z,36.00
2023-02-28T01:02:03.270Z,37.20
2023-02-28T01:12:08.734Z,42.60
2023-02-28T01:22:12.862Z,37.90
2023-02-28T01:32:16.083Z,41.70
2023-02-28T01:42:19.294Z,44.00
2023-02-28T01:52:24.861Z,45.40
2023-02-28T02:02:30.525Z,30.50
2023-02-28T02:13:04.765Z,23.30
2023-02-28T02:23:09.371Z,22.30
2023-02-28T02:33:18.385Z,27.20
2023-02-28T02:43:32.830Z,30.90
2023-02-28T02:53:42.100Z,21.20
2023-02-28T03:03:47.965Z,24.50
2023-02-28T03:14:22.829Z,24.60
2023-02-28T03:24:54.130Z,25.50
2023-02-28T03:35:00.435Z,27.50
2023-02-28T03:45:10.046Z,26.60
2023-02-28T03:55:16.047Z,23.20
2023-02-28T04:05:21.384Z,27.70
2023-02-28T04:15:25.874Z,23.10
2023-02-28T04:25:29.072Z,25.10
2023-02-28T04:35:32.239Z,25.80
2023-02-28T04:45:36.374Z,27.90
2023-02-28T04:55:41.444Z,27.60
2023-02-28T05:05:45.009Z,21.00
2023-02-28T05:15:48.267Z,28.80
2023-02-28T05:25:53.169Z,23.60
2023-02-28T05:35:57.360Z,24.70
2023-02-28T05:46:02.939Z,29.70
2023-02-28T05:56:06.333Z,38.30
2023-02-28T06:06:09.458Z,29.80
2023-02-28T06:16:13.761Z,33.80
2023-02-28T06:26:17.644Z,39.90
2023-02-28T06:36:22.095Z,39.60
2023-02-28T06:46:25.256Z,50.50
2023-02-28T06:56:28.774Z,47.00
2023-02-28T07:06:32.394Z,42.50
2023-02-28T07:16:37.021Z,34.00
2023-02-28T07:26:40.405Z,26.90
2023-02-28T07:36:43.480Z,36.80
2023-02-28T07:46:46.859Z,34.20
2023-02-28T07:56:50.391Z,12.00
2023-02-28T08:06:54.287Z,15.70
2023-02-28T08:16:57.491Z,11.30
2023-02-28T08:27:00.627Z,13.70
2023-02-28T08:37:03.899Z,12.40
2023-02-28T08:47:06.978Z,12.70
2023-02-28T08:57:10.905Z,16.00
2023-02-28T09:07:14.061Z,12.40
2023-02-28T09:17:18.127Z,12.30
2023-02-28T09:27:22.237Z,13.70
2023-02-28T09:37:26.107Z,14.30
2023-02-28T09:47:40.631Z,11.20
2023-02-28T09:57:43.934Z,12.60
2023-02-28T10:08:26.330Z,17.20
2023-02-28T10:18:52.102Z,15.30
2023-02-28T10:28:56.328Z,12.70
2023-02-28T10:39:02.390Z,11.00
2023-02-28T10:49:13.536Z,13.40
2023-02-28T10:59:16.651Z,16.00
2023-02-28T11:09:26.927Z,13.00
2023-02-28T11:19:45.936Z,17.70
2023-02-28T11:29:50.542Z,11.20
2023-02-28T11:39:53.691Z,13.50
2023-02-28T11:50:21.601Z,10.70
2023-02-28T12:10:58.874Z,14.10
2023-02-28T12:21:39.961Z,12.20
2023-02-28T12:31:50.531Z,15.20
2023-02-28T12:42:08.934Z,11.20
2023-02-28T12:52:14.753Z,11.30
2023-02-28T13:02:23.849Z,15.10
2023-02-28T13:12:28.010Z,12.60
2023-02-28T13:22:50.484Z,12.60
2023-02-28T13:33:24.368Z,15.70
2023-02-28T13:44:07.421Z,15.00
2023-02-28T13:54:18.431Z,14.60
2023-02-28T14:04:40.466Z,20.10
2023-02-28T14:14:43.988Z,18.70
2023-02-28T14:25:32.131Z,21.90
2023-02-28T14:36:05.307Z,18.90
2023-02-28T14:46:08.718Z,20.80
2023-02-28T14:56:39.670Z,23.30
2023-02-28T15:06:42.993Z,21.20
2023-02-28T15:16:51.080Z,23.00
2023-02-28T15:26:59.804Z,18.70
2023-02-28T15:37:03.117Z,22.60
2023-02-28T15:47:17.937Z,28.70
2023-02-28T15:57:29.087Z,31.40
2023-02-28T16:07:32.329Z,25.70
2023-02-28T16:17:40.141Z,37.50
2023-02-28T16:27:46.519Z,33.00
2023-02-28T16:37:53.620Z,24.00
2023-02-28T16:47:57.544Z,25.40
2023-02-28T16:58:02.376Z,32.90
2023-02-28T17:08:06.773Z,52.70
2023-02-28T17:18:16.945Z,49.20
2023-02-28T17:28:22.559Z,46.80
2023-02-28T17:38:25.920Z,43.30
2023-02-28T17:48:31.438Z,46.00
2023-02-28T17:58:35.280Z,52.90
2023-02-28T18:08:39.600Z,53.80
2023-02-28T18:18:44.349Z,79.10
2023-02-28T18:28:48.570Z,69.00
2023-02-28T18:38:52.939Z,63.60
2023-02-28T18:48:56.184Z,60.70
2023-02-28T18:58:59.306Z,59.50
2023-02-28T19:09:04.644Z,62.10
2023-02-28T19:19:07.890Z,66.80
2023-02-28T19:29:11.010Z,62.80
2023-02-28T19:39:14.228Z,74.50
2023-02-28T19:49:19.695Z,82.90
2023-02-28T19:59:31.355Z,81.10
2023-02-28T20:09:42.117Z,94.40
2023-02-28T20:19:45.702Z,67.30
2023-02-28T20:29:49.776Z,72.00
2023-02-28T20:39:53.517Z,64.30
2023-02-28T20:49:56.721Z,73.70
2023-02-28T20:59:59.848Z,74.90
2023-02-28T21:10:03.333Z,102.20
2023-02-28T21:20:06.887Z,71.20
2023-02-28T21:30:10.663Z,94.70
2023-02-28T21:40:14.169Z,83.20
2023-02-28T21:50:17.324Z,90.70
2023-02-28T22:00:21.090Z,83.70
2023-02-28T22:10:25.100Z,87.10
2023-02-28T22:20:28.180Z,126.80
2023-02-28T22:30:31.483Z,93.20
2023-02-28T22:40:35.635Z,98.80
2023-02-28T22:50:39.829Z,103.80
2023-02-28T23:00:43.980Z,86.60
2023-02-28T23:10:47.115Z,88.60
2023-02-28T23:20:50.261Z,86.20
2023-02-28T23:30:53.490Z,90.20
2023-02-28T23:40:56.779Z,100.00
2023-02-28T23:51:21.004Z,73.90
